Startpagina
METAR-TAF:

METAR-TAF

Vliegvelden :

Brunei International Airport

Brunei, Brunei

breedte: 04-56N, lengte: 114-56E, hoogte: 22 m

Actueel weer

Dit bericht is 15 minuten geleden gemaakt, om 02:30 UTC
Wind 8 kt uit het zuidzuidwesten
Temperatuur 32°C
Vochtigheid 67%
Druk 1010 hPa
Zicht: 8000 m
Weinig wolken op 1600 ft
Gebroken wolken op 14000 ft

METAR: WBSB 210230Z 21008KT 8000 FEW016 BKN140 32/25 Q1010 NOSIG

Tijdstip: 10:45 (02:45 UTC)

Verwachting

Dit bericht is 3 uur en het 45 minuten geleden gemaakt, om 23:00 UTC
Verwachting geldig van 21 om 00 UTC tot 22 om 06 UTC
Wind 2 kt uit het zuidzuidwesten
Zicht: 8000 m
Weinig wolken op 1500 ft
Wijzigt naar
van 21 om 03 UTC tot 21 om 05 UTC
Wind 9 kt uit het noordwesten
Weinig wolken op 1600 ft
Weinig wolken op 1700 ft, Cumulonimbus.

TAF: WBSB 202300Z 2100/2206 21002KT 8000 FEW015 BECMG 2103/2105 32009KT FEW016 FEW017CB

Waarnemingen en weersverwachtingen van meer dan 4000 vliegvelden (METAR en TAF).

De beschikbare stations zijn de gele en rode punten op de kaart.

Ga met uw muis naar het station om de naam te zien.

Klik dan om waarnemingen en weersverwachtingen te zien.

kaart wijzigen: klik op de groene knoppen met een zwart kruis om in te zoomen, op de groene knop met een streepje om uit te zoomen of op de groene pijlen voor aangrenzende kaarten.


METAR-TAF: